createdAt,value
2018-05-01T00:01:16.383Z,0.50
2018-05-01T00:03:46.132Z,0.52
2018-05-01T00:06:15.832Z,0.70
2018-05-01T00:08:45.191Z,0.75
2018-05-01T00:11:14.867Z,0.50
2018-05-01T00:13:44.256Z,3.08
2018-05-01T00:16:13.927Z,0.70
2018-05-01T00:18:44.379Z,0.50
2018-05-01T00:21:14.055Z,0.82
2018-05-01T00:23:43.743Z,0.70
2018-05-01T00:26:13.411Z,0.82
2018-05-01T00:28:43.099Z,0.70
2018-05-01T00:31:12.774Z,0.40
2018-05-01T00:33:42.483Z,1.05
2018-05-01T00:36:12.167Z,0.82
2018-05-01T00:38:41.866Z,1.15
2018-05-01T00:41:11.559Z,0.60
2018-05-01T00:43:41.235Z,0.50
2018-05-01T00:46:11.691Z,1.27
2018-05-01T00:48:41.363Z,0.70
2018-05-01T00:51:11.058Z,1.10
2018-05-01T00:53:40.739Z,0.57
2018-05-01T00:56:10.435Z,0.60
2018-05-01T00:58:40.114Z,0.95
2018-05-01T01:01:10.567Z,0.57
2018-05-01T01:03:40.318Z,0.73
2018-05-01T01:06:10.139Z,0.95
2018-05-01T01:08:39.814Z,0.60
2018-05-01T01:11:09.507Z,1.33
2018-05-01T01:13:39.179Z,0.60
2018-05-01T01:16:09.526Z,1.10
2018-05-01T01:18:39.202Z,0.93
2018-05-01T01:21:08.903Z,0.55
2018-05-01T01:23:38.570Z,0.40
2018-05-01T01:26:08.267Z,0.93
2018-05-01T01:28:37.955Z,0.70
2018-05-01T01:31:08.394Z,1.15
2018-05-01T01:33:38.842Z,0.50
2018-05-01T01:36:07.351Z,0.50
2018-05-01T01:38:35.884Z,0.45
2018-05-01T01:41:05.163Z,1.00
2018-05-01T01:43:33.695Z,0.55
2018-05-01T01:46:02.207Z,0.57
2018-05-01T01:48:30.747Z,0.50
2018-05-01T01:50:59.264Z,1.50
2018-05-01T01:53:27.841Z,0.40
2018-05-01T01:55:56.373Z,0.55
2018-05-01T01:58:25.651Z,0.57
2018-05-01T02:00:54.182Z,0.80
2018-05-01T02:03:22.691Z,0.55
2018-05-01T02:05:51.223Z,0.80
2018-05-01T02:08:19.744Z,0.50
2018-05-01T02:10:48.438Z,0.60
2018-05-01T02:13:16.955Z,0.52
2018-05-01T02:15:46.252Z,0.40
2018-05-01T02:18:14.771Z,1.00
2018-05-01T02:20:43.823Z,0.60
2018-05-01T02:23:12.532Z,0.73
2018-05-01T02:25:41.055Z,0.40
2018-05-01T02:28:09.584Z,0.77
2018-05-01T02:30:38.868Z,0.68
2018-05-01T02:33:07.394Z,0.60
2018-05-01T02:35:36.063Z,1.00
2018-05-01T02:38:04.670Z,0.88
2018-05-01T02:40:33.191Z,1.77
2018-05-01T02:43:01.901Z,0.90
2018-05-01T02:45:31.183Z,1.02
2018-05-01T02:47:59.716Z,0.80
2018-05-01T02:50:28.240Z,0.85
2018-05-01T02:52:56.775Z,0.77
2018-05-01T02:55:25.299Z,0.73
2018-05-01T02:57:54.352Z,0.60
2018-05-01T03:00:22.871Z,0.80
2018-05-01T03:02:51.379Z,0.98
2018-05-01T03:05:20.680Z,1.15
2018-05-01T03:07:49.963Z,1.45
2018-05-01T03:10:18.507Z,1.50
2018-05-01T03:12:47.247Z,0.50
2018-05-01T03:15:16.548Z,1.00
2018-05-01T03:17:45.234Z,0.60
2018-05-01T03:20:13.763Z,0.75
2018-05-01T03:22:43.215Z,0.70
2018-05-01T03:25:11.748Z,0.60
2018-05-01T03:27:40.435Z,1.15
2018-05-01T03:30:08.983Z,1.55
2018-05-01T03:32:37.727Z,0.60
2018-05-01T03:35:06.339Z,0.60
2018-05-01T03:37:35.093Z,0.55
2018-05-01T03:40:03.603Z,0.80
2018-05-01T03:42:32.139Z,0.50
2018-05-01T03:45:00.647Z,0.40
2018-05-01T03:47:29.189Z,1.35
2018-05-01T03:49:57.712Z,0.70
2018-05-01T03:52:26.234Z,0.60
2018-05-01T03:54:54.755Z,1.00
2018-05-01T03:57:23.287Z,0.82
2018-05-01T03:59:52.572Z,2.05
2018-05-01T04:02:22.029Z,1.00
2018-05-01T04:04:51.372Z,0.90
2018-05-01T04:07:20.683Z,2.45
2018-05-01T04:09:49.979Z,1.95
2018-05-01T04:12:19.262Z,1.30
2018-05-01T04:14:47.809Z,1.77
2018-05-01T04:17:16.335Z,1.30
2018-05-01T04:19:45.643Z,1.83
2018-05-01T04:22:14.936Z,1.50
2018-05-01T04:24:43.477Z,1.30
2018-05-01T04:27:12.002Z,1.33
2018-05-01T04:29:41.322Z,2.25
2018-05-01T04:32:09.853Z,2.00
2018-05-01T04:34:38.394Z,1.67
2018-05-01T04:37:06.931Z,1.70
2018-05-01T04:39:35.486Z,1.23
2018-05-01T04:42:04.011Z,1.27
2018-05-01T04:44:33.303Z,1.50
2018-05-01T04:47:01.848Z,1.35
2018-05-01T04:49:30.367Z,1.30
2018-05-01T04:51:58.911Z,1.55
2018-05-01T04:54:27.442Z,1.40
2018-05-01T04:56:56.738Z,1.30
2018-05-01T04:59:26.031Z,1.40
2018-05-01T05:01:54.571Z,1.50
2018-05-01T05:04:23.091Z,1.30
2018-05-01T05:06:51.630Z,1.42
2018-05-01T05:09:20.159Z,1.48
2018-05-01T05:11:48.703Z,1.52
2018-05-01T05:14:17.277Z,1.35
2018-05-01T05:16:45.823Z,1.60
2018-05-01T05:19:15.119Z,1.95
2018-05-01T05:21:44.411Z,1.67
2018-05-01T05:24:13.728Z,1.58
2018-05-01T05:26:43.018Z,1.40
2018-05-01T05:29:12.105Z,1.30
2018-05-01T05:31:41.563Z,1.60
2018-05-01T05:34:10.923Z,1.60
2018-05-01T05:36:40.207Z,1.27
2018-05-01T05:39:09.523Z,1.67
2018-05-01T05:41:39.019Z,1.67
2018-05-01T05:44:21.790Z,1.50
2018-05-01T05:46:50.522Z,1.52
2018-05-01T05:49:18.875Z,1.27
2018-05-01T05:51:47.404Z,1.10
2018-05-01T05:54:19.575Z,1.50
2018-05-01T05:56:48.296Z,1.73
2018-05-01T05:59:16.842Z,1.30
2018-05-01T06:01:45.368Z,1.23
2018-05-01T06:04:15.604Z,1.50
2018-05-01T06:06:44.148Z,1.50
2018-05-01T06:09:12.667Z,1.00
2018-05-01T06:11:41.289Z,1.00
2018-05-01T06:14:09.814Z,1.05
2018-05-01T06:16:38.389Z,1.45
2018-05-01T06:19:06.906Z,2.35
2018-05-01T06:21:35.463Z,1.65
2018-05-01T06:24:03.986Z,1.50
2018-05-01T06:26:33.279Z,1.35
2018-05-01T06:29:02.663Z,1.70
2018-05-01T06:31:31.355Z,1.62
2018-05-01T06:33:59.908Z,1.55
2018-05-01T06:36:28.434Z,1.15
2018-05-01T06:38:57.740Z,1.00
2018-05-01T06:41:27.028Z,0.80
2018-05-01T06:43:55.582Z,1.20
2018-05-01T06:46:24.388Z,0.90
2018-05-01T06:48:52.918Z,0.90
2018-05-01T06:51:21.435Z,1.10
2018-05-01T06:53:49.963Z,0.77
2018-05-01T06:56:18.480Z,1.15
2018-05-01T06:58:47.016Z,0.90
2018-05-01T07:01:16.327Z,0.80
2018-05-01T07:03:45.636Z,1.10
2018-05-01T07:06:14.471Z,0.85
2018-05-01T07:08:44.236Z,1.30
2018-05-01T07:11:14.028Z,1.00
2018-05-01T07:13:42.663Z,1.50
2018-05-01T07:16:11.301Z,1.00
2018-05-01T07:18:40.078Z,1.00
2018-05-01T07:21:09.493Z,1.48
2018-05-01T07:23:38.180Z,0.95
2018-05-01T07:26:07.887Z,1.00
2018-05-01T07:28:36.786Z,2.28
2018-05-01T07:31:05.713Z,1.52
2018-05-01T07:33:34.230Z,1.10
2018-05-01T07:36:03.631Z,1.60
2018-05-01T07:38:32.318Z,1.10
2018-05-01T07:41:00.891Z,0.98
2018-05-01T07:43:29.431Z,0.90
2018-05-01T07:45:58.099Z,1.00
2018-05-01T07:48:27.886Z,1.10
2018-05-01T07:50:57.735Z,1.30
2018-05-01T07:53:26.272Z,1.08
2018-05-01T07:55:54.950Z,1.27
2018-05-01T07:58:23.495Z,1.23
2018-05-01T08:00:52.007Z,1.02
2018-05-01T08:03:24.379Z,2.42
2018-05-01T08:05:52.903Z,1.10
2018-05-01T08:08:22.867Z,0.93
2018-05-01T08:10:51.979Z,1.05
2018-05-01T08:13:20.609Z,1.37
2018-05-01T08:15:49.391Z,1.52
2018-05-01T08:18:17.983Z,1.20
2018-05-01T08:20:46.511Z,1.30
2018-05-01T08:23:15.063Z,1.77
2018-05-01T08:25:43.635Z,1.65
2018-05-01T08:28:12.170Z,1.70
2018-05-01T08:30:40.695Z,1.62
2018-05-01T08:33:09.236Z,1.27
2018-05-01T08:35:37.769Z,1.20
2018-05-01T08:38:06.308Z,1.10
2018-05-01T08:40:35.597Z,1.15
2018-05-01T08:43:04.132Z,1.30
2018-05-01T08:45:32.655Z,1.00
2018-05-01T08:48:01.224Z,1.40
2018-05-01T08:50:29.742Z,1.35
2018-05-01T08:52:58.307Z,1.62
2018-05-01T08:55:26.879Z,1.20
2018-05-01T08:57:55.600Z,1.58
2018-05-01T09:00:24.130Z,1.60
2018-05-01T09:02:52.840Z,1.50
2018-05-01T09:05:21.380Z,1.35
2018-05-01T09:07:50.930Z,1.37
2018-05-01T09:10:19.451Z,1.50
2018-05-01T09:12:48.911Z,1.87
2018-05-01T09:15:17.456Z,1.30
2018-05-01T09:17:46.215Z,1.37
2018-05-01T09:20:14.668Z,3.33
2018-05-01T09:22:43.366Z,1.50
2018-05-01T09:25:12.681Z,1.40
2018-05-01T09:27:41.367Z,1.30
2018-05-01T09:30:09.918Z,1.20
2018-05-01T09:32:38.663Z,2.28
2018-05-01T09:35:07.217Z,1.60
2018-05-01T09:37:35.915Z,1.58
2018-05-01T09:40:04.458Z,1.50
2018-05-01T09:42:33.796Z,1.42
2018-05-01T09:45:02.428Z,1.37
2018-05-01T09:47:30.982Z,1.60
2018-05-01T09:49:59.707Z,1.40
2018-05-01T09:52:29.390Z,4.32
2018-05-01T09:54:59.103Z,1.40
2018-05-01T09:57:28.777Z,1.40
2018-05-01T09:59:58.479Z,1.50
2018-05-01T10:02:27.943Z,1.67
2018-05-01T10:04:57.622Z,2.97
2018-05-01T10:07:27.334Z,1.27
2018-05-01T10:09:57.779Z,3.08
2018-05-01T10:12:27.484Z,1.37
2018-05-01T10:14:57.164Z,1.15
2018-05-01T10:17:26.909Z,1.30
2018-05-01T10:19:56.623Z,1.33
2018-05-01T10:22:26.336Z,1.87
2018-05-01T10:24:55.780Z,1.42
2018-05-01T10:27:25.493Z,1.60
2018-05-01T10:29:55.212Z,2.12
2018-05-01T10:32:25.184Z,1.50
2018-05-01T10:34:55.163Z,1.27
2018-05-01T10:37:24.874Z,2.00
2018-05-01T10:39:54.566Z,2.30
2018-05-01T10:42:24.265Z,2.05
2018-05-01T10:44:53.942Z,1.20
2018-05-01T10:47:24.411Z,1.20
2018-05-01T10:49:54.086Z,1.33
2018-05-01T10:52:24.383Z,1.55
2018-05-01T10:54:54.231Z,1.40
2018-05-01T10:57:23.955Z,2.08
2018-05-01T10:59:53.666Z,1.60
2018-05-01T11:02:23.381Z,1.40
2018-05-01T11:04:53.135Z,1.60
2018-05-01T11:07:22.824Z,1.30
2018-05-01T11:09:52.514Z,1.80
2018-05-01T11:12:22.013Z,1.42
2018-05-01T11:14:55.596Z,1.20
2018-05-01T11:17:25.279Z,1.33
2018-05-01T11:19:54.971Z,1.30
2018-05-01T11:22:24.654Z,1.30
2018-05-01T11:24:54.417Z,1.40
2018-05-01T11:27:24.880Z,1.25
2018-05-01T11:29:54.572Z,1.23
2018-05-01T11:32:24.271Z,1.40
2018-05-01T11:34:54.741Z,1.27
2018-05-01T11:37:24.434Z,1.42
2018-05-01T11:39:54.135Z,1.20
2018-05-01T11:42:23.831Z,1.25
2018-05-01T11:44:54.354Z,2.10
2018-05-01T11:47:24.190Z,1.37
2018-05-01T11:49:53.898Z,1.62
2018-05-01T11:52:23.578Z,1.30
2018-05-01T11:54:54.107Z,0.95
2018-05-01T11:57:24.573Z,1.17
2018-05-01T11:59:54.303Z,1.17
2018-05-01T12:02:23.983Z,1.02
2018-05-01T12:04:53.703Z,1.12
2018-05-01T12:07:23.395Z,1.15
2018-05-01T12:09:53.127Z,1.00
2018-05-01T12:12:23.258Z,1.10
2018-05-01T12:14:53.051Z,1.20
2018-05-01T12:17:22.727Z,1.90
2018-05-01T12:19:53.191Z,1.20
2018-05-01T12:22:22.888Z,0.88
2018-05-01T12:24:52.591Z,0.93
2018-05-01T12:27:22.278Z,1.05
2018-05-01T12:29:52.776Z,1.20
2018-05-01T12:32:22.457Z,1.65
2018-05-01T12:34:52.139Z,0.77
2018-05-01T12:37:21.866Z,1.17
2018-05-01T12:39:51.563Z,1.17
2018-05-01T12:42:21.330Z,1.30
2018-05-01T12:44:54.099Z,1.00
2018-05-01T12:47:23.780Z,1.20
2018-05-01T12:49:53.500Z,1.00
2018-05-01T12:52:23.383Z,1.60
2018-05-01T12:54:53.834Z,0.90
2018-05-01T12:57:23.524Z,0.98
2018-05-01T12:59:53.217Z,1.00
2018-05-01T13:02:22.908Z,1.20
2018-05-01T13:04:52.612Z,1.20
2018-05-01T13:07:22.299Z,1.85
2018-05-01T13:09:51.999Z,1.10
2018-05-01T13:12:21.696Z,1.17
2018-05-01T13:14:51.382Z,1.10
2018-05-01T13:17:21.062Z,1.00
2018-05-01T13:19:50.778Z,1.12
2018-05-01T13:22:20.417Z,1.10
2018-05-01T13:24:49.863Z,0.75
2018-05-01T13:27:19.323Z,2.10
2018-05-01T13:29:49.022Z,1.20
2018-05-01T13:32:18.699Z,1.00
2018-05-01T13:34:48.398Z,1.02
2018-05-01T13:37:18.070Z,1.20
2018-05-01T13:39:47.823Z,1.48
2018-05-01T13:42:17.503Z,1.05
2018-05-01T13:44:47.197Z,0.90
2018-05-01T13:47:16.881Z,1.10
2018-05-01T13:49:47.326Z,0.90
2018-05-01T13:52:16.775Z,1.20
2018-05-01T13:54:46.506Z,0.88
2018-05-01T13:57:17.001Z,1.10
2018-05-01T13:59:46.902Z,1.17
2018-05-01T14:02:16.584Z,1.10
2018-05-01T14:04:46.283Z,0.90
2018-05-01T14:07:15.979Z,0.77
2018-05-01T14:09:45.711Z,2.25
2018-05-01T14:12:15.411Z,1.55
2018-05-01T14:14:45.095Z,1.02
2018-05-01T14:17:14.795Z,1.12
2018-05-01T14:19:44.473Z,1.50
2018-05-01T14:22:14.163Z,0.90
2018-05-01T14:24:43.835Z,0.90
2018-05-01T14:27:14.030Z,1.08
2018-05-01T14:29:43.968Z,1.00
2018-05-01T14:32:13.687Z,1.10
2018-05-01T14:34:43.350Z,0.85
2018-05-01T14:37:13.061Z,1.00
2018-05-01T14:39:42.743Z,1.52
2018-05-01T14:42:12.202Z,1.17
2018-05-01T14:44:44.103Z,1.58
2018-05-01T14:47:13.811Z,1.00
2018-05-01T14:49:43.482Z,1.23
2018-05-01T14:52:13.171Z,0.90
2018-05-01T14:54:42.841Z,0.90
2018-05-01T14:57:12.531Z,0.85
2018-05-01T14:59:43.295Z,1.15
2018-05-01T15:02:13.067Z,1.20
2018-05-01T15:04:43.507Z,1.00
2018-05-01T15:07:13.267Z,1.08
2018-05-01T15:09:43.019Z,0.85
2018-05-01T15:12:13.466Z,0.88
2018-05-01T15:14:46.756Z,1.10
2018-05-01T15:17:16.454Z,0.95
2018-05-01T15:19:46.899Z,1.00
2018-05-01T15:22:16.608Z,1.02
2018-05-01T15:24:46.279Z,0.82
2018-05-01T15:27:15.731Z,0.90
2018-05-01T15:29:45.426Z,1.30
2018-05-01T15:32:15.095Z,0.80
2018-05-01T15:34:44.790Z,1.10
2018-05-01T15:37:14.495Z,0.90
2018-05-01T15:39:44.195Z,1.00
2018-05-01T15:42:13.875Z,1.05
2018-05-01T15:44:46.367Z,1.02
2018-05-01T15:47:16.048Z,1.00
2018-05-01T15:49:46.511Z,1.27
2018-05-01T15:52:16.191Z,1.00
2018-05-01T15:54:45.663Z,0.73
2018-05-01T15:57:16.102Z,1.00
2018-05-01T15:59:46.563Z,1.77
2018-05-01T16:02:16.297Z,1.25
2018-05-01T16:04:45.987Z,1.00
2018-05-01T16:07:15.670Z,1.70
2018-05-01T16:09:45.376Z,1.20
2018-05-01T16:12:15.823Z,1.95
2018-05-01T16:14:45.662Z,0.90
2018-05-01T16:17:15.338Z,0.98
2018-05-01T16:19:45.042Z,1.10
2018-05-01T16:22:14.723Z,1.27
2018-05-01T16:24:44.188Z,0.90
2018-05-01T16:27:13.623Z,1.48
2018-05-01T16:29:43.318Z,0.90
2018-05-01T16:32:13.004Z,1.15
2018-05-01T16:34:42.696Z,0.95
2018-05-01T16:37:12.377Z,1.05
2018-05-01T16:39:42.867Z,1.25
2018-05-01T16:42:12.557Z,1.15
2018-05-01T16:44:43.819Z,2.28
2018-05-01T16:47:13.499Z,0.88
2018-05-01T16:49:43.355Z,1.00
2018-05-01T16:52:13.584Z,0.82
2018-05-01T16:54:43.299Z,1.05
2018-05-01T16:57:12.986Z,0.80
2018-05-01T16:59:42.701Z,1.60
2018-05-01T17:02:12.404Z,0.80
2018-05-01T17:04:42.087Z,0.75
2018-05-01T17:07:11.787Z,1.10
2018-05-01T17:09:42.287Z,0.90
2018-05-01T17:12:12.747Z,0.95
2018-05-01T17:14:45.235Z,0.77
2018-05-01T17:17:14.931Z,0.80
2018-05-01T17:19:44.621Z,0.80
2018-05-01T17:22:15.121Z,0.95
2018-05-01T17:24:45.553Z,0.90
2018-05-01T17:27:15.323Z,0.90
2018-05-01T17:29:44.988Z,0.80
2018-05-01T17:32:15.447Z,0.90
2018-05-01T17:34:45.223Z,1.30
2018-05-01T17:37:15.679Z,0.90
2018-05-01T17:39:45.355Z,0.90
2018-05-01T17:42:15.060Z,1.55
2018-05-01T17:44:45.699Z,1.08
2018-05-01T17:47:15.421Z,1.17
2018-05-01T17:49:47.286Z,1.83
2018-05-01T17:52:17.051Z,0.70
2018-05-01T17:54:46.763Z,0.80
2018-05-01T17:57:16.546Z,0.90
2018-05-01T17:59:46.407Z,1.12
2018-05-01T18:02:16.856Z,0.65
2018-05-01T18:04:46.732Z,1.30
2018-05-01T18:07:16.466Z,0.73
2018-05-01T18:09:46.351Z,0.80
2018-05-01T18:12:16.323Z,1.05
2018-05-01T18:14:46.150Z,1.05
2018-05-01T18:17:15.679Z,1.67
2018-05-01T18:19:45.387Z,1.73
2018-05-01T18:22:15.955Z,1.55
2018-05-01T18:24:45.695Z,1.00
2018-05-01T18:27:15.397Z,1.17
2018-05-01T18:29:45.074Z,1.12
2018-05-01T18:32:15.555Z,1.17
2018-05-01T18:34:45.235Z,1.20
2018-05-01T18:37:15.007Z,1.50
2018-05-01T18:39:44.853Z,1.10
2018-05-01T18:42:14.543Z,1.17
2018-05-01T18:44:44.992Z,1.02
2018-05-01T18:47:14.683Z,1.00
2018-05-01T18:49:45.230Z,1.25
2018-05-01T18:52:15.676Z,0.90
2018-05-01T18:54:45.456Z,0.98
2018-05-01T18:57:15.705Z,1.05
2018-05-01T18:59:45.379Z,1.00
2018-05-01T19:02:15.851Z,0.80
2018-05-01T19:04:45.585Z,2.95
2018-05-01T19:07:15.443Z,1.08
2018-05-01T19:09:45.143Z,1.35
2018-05-01T19:12:15.381Z,0.93
2018-05-01T19:14:45.040Z,1.20
2018-05-01T19:17:15.169Z,1.50
2018-05-01T19:19:45.332Z,2.05
2018-05-01T19:22:15.790Z,1.40
2018-05-01T19:24:45.556Z,2.37
2018-05-01T19:27:15.251Z,2.35
2018-05-01T19:29:44.976Z,2.15
2018-05-01T19:32:14.651Z,1.77
2018-05-01T19:34:45.172Z,1.40
2018-05-01T19:37:14.872Z,1.70
2018-05-01T19:39:44.643Z,2.00
2018-05-01T19:42:14.464Z,1.70
2018-05-01T19:44:49.747Z,1.58
2018-05-01T19:47:19.431Z,1.70
2018-05-01T19:49:49.139Z,1.87
2018-05-01T19:52:18.833Z,3.30
2018-05-01T19:54:48.530Z,2.15
2018-05-01T19:57:18.223Z,2.20
2018-05-01T19:59:47.931Z,2.40
2018-05-01T20:02:17.644Z,3.17
2018-05-01T20:04:47.367Z,2.42
2018-05-01T20:07:17.051Z,2.28
2018-05-01T20:09:46.760Z,2.15
2018-05-01T20:12:17.206Z,2.53
2018-05-01T20:14:46.907Z,2.50
2018-05-01T20:17:16.698Z,2.22
2018-05-01T20:19:47.173Z,1.75
2018-05-01T20:22:16.874Z,1.90
2018-05-01T20:24:46.671Z,1.65
2018-05-01T20:27:17.103Z,3.50
2018-05-01T20:29:46.808Z,2.17
2018-05-01T20:32:16.495Z,2.00
2018-05-01T20:34:47.058Z,2.03
2018-05-01T20:37:16.796Z,1.90
2018-05-01T20:39:46.671Z,1.70
2018-05-01T20:42:16.358Z,1.80
2018-05-01T20:44:46.135Z,1.80
2018-05-01T20:47:15.819Z,1.65
2018-05-01T20:49:45.551Z,1.80
2018-05-01T20:52:15.239Z,2.12
2018-05-01T20:54:44.942Z,2.12
2018-05-01T20:57:14.622Z,1.92
2018-05-01T20:59:45.087Z,2.10
2018-05-01T21:02:14.791Z,2.10
2018-05-01T21:04:44.488Z,2.25
2018-05-01T21:07:14.175Z,2.30
2018-05-01T21:09:44.634Z,2.22
2018-05-01T21:12:14.320Z,2.83
2018-05-01T21:14:44.015Z,3.10
2018-05-01T21:17:13.706Z,2.60
2018-05-01T21:19:43.406Z,3.20
2018-05-01T21:22:13.233Z,2.60
2018-05-01T21:24:43.113Z,2.28
2018-05-01T21:27:12.787Z,2.37
2018-05-01T21:29:42.491Z,2.65
2018-05-01T21:32:12.179Z,2.35
2018-05-01T21:34:42.657Z,2.75
2018-05-01T21:37:12.438Z,2.45
2018-05-01T21:39:42.601Z,2.87
2018-05-01T21:42:12.303Z,2.67
2018-05-01T21:44:41.983Z,2.60
2018-05-01T21:47:11.678Z,2.83
2018-05-01T21:49:42.127Z,3.10
2018-05-01T21:52:11.835Z,2.90
2018-05-01T21:54:41.939Z,3.22
2018-05-01T21:57:12.474Z,2.40
2018-05-01T21:59:42.271Z,3.00
2018-05-01T22:02:12.766Z,3.37
2018-05-01T22:04:42.435Z,2.90
2018-05-01T22:07:12.132Z,3.28
2018-05-01T22:09:41.802Z,2.87
2018-05-01T22:12:11.504Z,3.22
2018-05-01T22:14:41.184Z,3.12
2018-05-01T22:17:10.882Z,2.97
2018-05-01T22:19:40.562Z,3.10
2018-05-01T22:22:11.023Z,2.97
2018-05-01T22:24:40.699Z,2.80
2018-05-01T22:27:10.417Z,2.50
2018-05-01T22:29:40.100Z,2.72
2018-05-01T22:32:09.799Z,2.55
2018-05-01T22:34:39.475Z,2.85
2018-05-01T22:37:09.174Z,2.78
2018-05-01T22:39:38.860Z,3.12
2018-05-01T22:42:08.768Z,2.87
2018-05-01T22:44:39.215Z,2.78
2018-05-01T22:47:08.911Z,2.85
2018-05-01T22:49:38.584Z,3.20
2018-05-01T22:52:08.287Z,2.90
2018-05-01T22:54:37.967Z,2.85
2018-05-01T22:57:07.658Z,3.00
2018-05-01T22:59:37.342Z,2.50
2018-05-01T23:02:07.799Z,3.22
2018-05-01T23:04:37.474Z,2.67
2018-05-01T23:07:07.939Z,2.83
2018-05-01T23:09:37.634Z,2.55
2018-05-01T23:12:07.331Z,2.42
2018-05-01T23:14:37.781Z,2.67
2018-05-01T23:17:07.475Z,2.70
2018-05-01T23:19:37.156Z,2.58
2018-05-01T23:22:06.853Z,2.62
2018-05-01T23:24:36.527Z,3.00
2018-05-01T23:27:06.222Z,3.00
2018-05-01T23:29:35.896Z,2.92
2018-05-01T23:32:06.354Z,3.10
2018-05-01T23:34:36.037Z,3.22
2018-05-01T23:37:06.510Z,3.25
2018-05-01T23:39:36.182Z,3.30
2018-05-01T23:42:06.643Z,3.30
2018-05-01T23:44:36.323Z,3.30
2018-05-01T23:47:05.792Z,3.03
2018-05-01T23:49:35.474Z,3.17
2018-05-01T23:52:05.175Z,3.10
2018-05-01T23:54:34.862Z,3.10
2018-05-01T23:57:04.560Z,2.85
2018-05-01T23:59:34.243Z,3.42
